Time;durP1;ratioP1;P1;durP2;ratioP2;P2;SDS_P1;SDS_P2;PMS_P1;PMS_P2;Temp;Humidity;BMP_temperature;BMP_pressure;BME280_temperature;BME280_humidity;BME280_pressure;Samples;Min_cycle;Max_cycle;Signal;HPM_P1;HPM_P2
2022/04/27 00:05:02;;;;;;;4.75;3.00;;;;;;;23.61;44.79;100201.47;20433834;28;98809;-76
2022/04/27 00:15:04;;;;;;;4.30;3.22;;;;;;;23.60;44.55;100194.50;20444505;28;97023;-77
2022/04/27 00:25:05;;;;;;;4.37;2.90;;;;;;;23.62;44.42;100187.28;20431320;28;98340;-78
2022/04/27 00:35:08;;;;;;;3.50;3.00;;;;;;;23.64;44.58;100192.41;20431443;28;97668;-77
2022/04/27 00:45:09;;;;;;;3.55;2.80;;;;;;;23.64;44.64;100190.63;20437188;28;97155;-78
2022/04/27 00:55:11;;;;;;;4.47;2.72;;;;;;;23.64;44.70;100206.47;20430177;28;96982;-78
2022/04/27 01:05:12;;;;;;;5.30;2.63;;;;;;;23.62;44.63;100231.34;20434531;28;97931;-78
2022/04/27 01:15:13;;;;;;;3.53;2.90;;;;;;;23.60;44.47;100236.78;20441651;28;97359;-77
2022/04/27 01:25:13;;;;;;;4.00;2.38;;;;;;;23.56;44.86;100238.06;20439825;28;100159;-78
2022/04/27 01:35:14;;;;;;;3.22;2.45;;;;;;;23.55;44.85;100249.59;20443343;28;97281;-77
2022/04/27 01:45:14;;;;;;;3.55;2.58;;;;;;;23.56;44.68;100253.06;20436976;28;101979;-76
2022/04/27 01:55:15;;;;;;;2.65;2.35;;;;;;;23.53;44.63;100269.22;20446617;28;99382;-77
2022/04/27 02:05:15;;;;;;;3.63;2.40;;;;;;;23.53;44.58;100275.31;20450525;28;97649;-77
2022/04/27 02:15:16;;;;;;;3.67;2.40;;;;;;;23.55;44.78;100276.03;20465640;28;97205;-77
2022/04/27 02:25:17;;;;;;;3.90;2.30;;;;;;;23.53;44.87;100263.91;20397120;28;97007;-77
2022/04/27 02:35:18;;;;;;;3.35;2.30;;;;;;;23.49;45.33;100261.53;20452022;28;97822;-77
2022/04/27 02:45:18;;;;;;;2.35;2.15;;;;;;;23.48;45.60;100249.28;20454956;28;97687;-77
2022/04/27 02:55:19;;;;;;;2.50;2.25;;;;;;;23.49;45.24;100250.16;20389828;28;100368;-77
2022/04/27 03:05:19;;;;;;;3.00;2.40;;;;;;;23.48;45.70;100259.03;20381531;28;97574;-77
2022/04/27 03:15:22;;;;;;;2.30;2.08;;;;;;;23.47;45.96;100260.88;20377931;28;97119;-78
2022/04/27 03:25:22;;;;;;;;;;;;;;;23.44;45.88;100260.31;20361005;28;100435;-78
2022/04/27 03:35:23;;;;;;;3.33;2.13;;;;;;;23.41;46.09;100268.47;20360060;28;100284;-78
2022/04/27 03:45:23;;;;;;;2.45;2.17;;;;;;;23.42;46.03;100263.06;20353374;28;96951;-78
2022/04/27 03:55:24;;;;;;;2.60;1.80;;;;;;;23.42;46.09;100278.09;20333546;28;100375;-77
2022/04/27 04:05:24;;;;;;;2.50;2.20;;;;;;;23.34;45.74;100284.88;20340466;28;98858;-77
2022/04/27 04:15:25;;;;;;;3.30;1.90;;;;;;;23.48;46.04;100293.41;20335594;28;98677;-77
2022/04/27 04:35:44;;;;;;;7.43;2.60;;;;;;;23.56;47.99;100298.00;20364786;28;98805;-78
2022/04/27 04:45:45;;;;;;;31.52;7.15;;;;;;;23.62;48.07;100322.09;20365327;28;99857;-78
2022/04/27 04:55:45;;;;;;;34.88;7.57;;;;;;;23.60;43.32;100339.88;20358807;28;97026;-77
2022/04/27 05:05:49;;;;;;;25.40;12.80;;;;;;;22.31;41.75;100351.69;20347510;28;97207;-83
2022/04/27 05:15:49;;;;;;;10.18;6.72;;;;;;;22.57;41.60;100361.91;20368168;28;101081;-79
2022/04/27 05:25:50;;;;;;;10.57;5.38;;;;;;;22.71;41.37;100354.50;20367772;28;99775;-78
2022/04/27 05:35:50;;;;;;;8.77;4.97;;;;;;;22.80;41.49;100363.47;20385559;28;101064;-81
2022/04/27 05:45:55;;;;;;;11.60;5.25;;;;;;;22.83;40.66;100373.75;20364046;28;97582;-82
2022/04/27 05:55:56;;;;;;;5.88;4.25;;;;;;;22.89;40.47;100384.75;20393222;28;96860;-82
2022/04/27 06:05:57;;;;;;;7.25;4.40;;;;;;;22.91;40.03;100393.38;20385897;28;97276;-82
2022/04/27 06:15:57;;;;;;;6.18;3.95;;;;;;;22.96;39.84;100393.81;20369718;28;97054;-79
2022/04/27 06:25:57;;;;;;;6.00;4.10;;;;;;;23.01;39.49;100396.94;20377388;28;97432;-79
2022/04/27 06:35:58;;;;;;;6.55;3.85;;;;;;;22.94;39.52;100399.25;20362013;28;97166;-80
2022/04/27 06:46:00;;;;;;;6.60;3.78;;;;;;;22.89;40.40;100403.22;20389105;28;96984;-82
2022/04/27 06:56:01;;;;;;;10.68;3.83;;;;;;;23.00;41.04;100408.47;20392978;28;98158;-81
2022/04/27 07:06:03;;;;;;;7.72;4.13;;;;;;;23.07;41.74;100422.81;20387318;28;97716;-79
2022/04/27 07:16:05;;;;;;;4.50;3.60;;;;;;;23.11;42.33;100437.41;20390667;28;97462;-79
2022/04/27 07:26:07;;;;;;;6.63;3.23;;;;;;;23.17;42.96;100446.69;20381283;28;96973;-80
2022/04/27 07:36:07;;;;;;;;;;;;;;;23.25;43.73;100459.22;20376600;28;100736;-79
2022/04/27 07:46:09;;;;;;;8.23;3.42;;;;;;;23.21;43.93;100471.03;20376081;28;97772;-80
2022/04/27 07:56:10;;;;;;;8.93;3.33;;;;;;;23.24;43.92;100468.09;20394667;28;97044;-79
2022/04/27 08:06:11;;;;;;;5.32;3.70;;;;;;;23.26;43.71;100471.47;20401753;28;97670;-78
2022/04/27 08:16:12;;;;;;;5.15;3.22;;;;;;;23.30;44.08;100468.44;20394605;28;97340;-79
2022/04/27 08:26:13;;;;;;;5.05;3.30;;;;;;;23.32;43.73;100476.22;20382063;28;97830;-80
2022/04/27 08:36:14;;;;;;;5.28;3.83;;;;;;;23.33;44.23;100486.66;20390982;28;100633;-80
2022/04/27 08:46:15;;;;;;;5.45;3.00;;;;;;;23.36;43.64;100488.19;20398967;28;99323;-80
2022/04/27 08:56:16;;;;;;;4.90;2.80;;;;;;;23.39;43.73;100485.31;20386108;28;97249;-79
2022/04/27 09:06:20;;;;;;;5.15;3.20;;;;;;;23.41;43.89;100478.09;20375983;28;97325;-80
2022/04/27 09:16:23;;;;;;;3.83;2.90;;;;;;;23.42;43.68;100476.28;20380211;28;97981;-80
2022/04/27 09:26:27;;;;;;;5.20;3.33;;;;;;;23.47;43.68;100482.00;20377140;28;96884;-79
2022/04/27 09:36:28;;;;;;;5.50;2.60;;;;;;;23.47;43.84;100482.00;20381263;28;97807;-80
2022/04/27 09:46:29;;;;;;;3.37;3.00;;;;;;;23.49;43.57;100474.78;20372095;28;97180;-79
2022/04/27 09:56:38;;;;;;;4.97;3.00;;;;;;;23.46;43.67;100469.75;20393363;28;97601;-80
2022/04/27 10:06:39;;;;;;;4.00;2.88;;;;;;;23.45;43.67;100471.56;20461497;28;97405;-78
2022/04/27 10:16:40;;;;;;;4.75;3.00;;;;;;;23.45;43.66;100471.56;20471723;28;97638;-79
2022/04/27 10:26:41;;;;;;;4.10;2.90;;;;;;;23.47;43.77;100474.91;20474428;28;97555;-79
2022/04/27 10:36:41;;;;;;;4.33;2.90;;;;;;;23.46;43.76;100485.59;20480411;28;96974;-80
2022/04/27 10:46:44;;;;;;;3.70;3.03;;;;;;;23.43;44.00;100480.59;20471377;28;97438;-80
2022/04/27 10:56:45;;;;;;;;;;;;;;;23.40;44.34;100488.78;20473188;28;98502;-79
2022/04/27 11:07:20;;;;;;;3.85;3.00;;;;;;;23.38;44.38;100488.91;20464021;28;97647;-79
2022/04/27 11:17:28;;;;;;;3.20;2.80;;;;;;;23.37;44.36;100481.13;20459192;28;97491;-79
2022/04/27 11:27:32;;;;;;;3.25;2.50;;;;;;;23.38;44.21;100499.47;20467418;28;96879;-79
2022/04/27 11:37:36;;;;;;;3.75;2.67;;;;;;;23.35;44.25;100494.44;20480634;28;97972;-79
2022/04/27 11:47:37;;;;;;;2.97;2.67;;;;;;;23.32;44.46;100492.06;20474537;28;97334;-80
2022/04/27 11:57:39;;;;;;;4.63;2.80;;;;;;;23.30;44.32;100497.50;20495277;28;97594;-80
2022/04/27 12:07:40;;;;;;;3.08;2.47;;;;;;;23.31;44.30;100499.19;20464556;28;98558;-80
2022/04/27 12:17:57;;;;;;;3.30;3.00;;;;;;;23.27;44.54;100489.81;20458862;28;97752;-79
2022/04/27 12:27:59;;;;;;;3.03;2.72;;;;;;;23.24;44.35;100490.09;20454641;28;96973;-79
2022/04/27 12:38:18;;;;;;;3.20;2.87;;;;;;;23.27;44.47;100483.72;20459436;28;96958;-79
2022/04/27 12:48:31;;;;;;;4.25;2.97;;;;;;;23.26;44.42;100479.38;20442518;28;97412;-79
2022/04/27 12:58:32;;;;;;;5.57;3.03;;;;;;;23.25;44.25;100489.09;20458245;28;102526;-79
2022/04/27 13:08:33;;;;;;;3.47;3.13;;;;;;;23.23;44.40;100484.91;20452910;28;97249;-79
2022/04/27 13:18:33;;;;;;;4.00;2.97;;;;;;;23.24;44.54;100483.97;20456866;28;97498;-79
2022/04/27 13:28:39;;;;;;;3.03;2.72;;;;;;;23.24;44.43;100479.53;20451760;28;100145;-80
2022/04/27 13:38:40;;;;;;;3.45;2.72;;;;;;;23.27;44.40;100486.34;20440996;27;100022;-79
2022/04/27 13:48:42;;;;;;;4.82;2.95;;;;;;;23.24;44.50;100498.03;20468176;28;97012;-78
2022/04/27 13:58:43;;;;;;;9.80;3.40;;;;;;;23.23;44.50;100495.47;20486672;28;97678;-79
2022/04/27 14:08:44;;;;;;;22.48;5.22;;;;;;;23.20;44.56;100498.41;20480382;28;98834;-77
2022/04/27 14:18:44;;;;;;;21.25;5.07;;;;;;;23.17;44.57;100494.22;20481796;28;100161;-78
2022/04/27 14:28:45;;;;;;;18.50;5.10;;;;;;;23.19;44.26;100500.19;20481087;28;96997;-79
2022/04/27 14:38:45;;;;;;;15.95;4.88;;;;;;;23.11;44.75;100507.91;20475019;28;96857;-79
2022/04/27 14:48:47;;;;;;;23.75;4.85;;;;;;;23.08;44.93;100508.16;20479412;28;96966;-79
2022/04/27 14:58:47;;;;;;;11.93;4.20;;;;;;;23.10;44.62;100514.16;20485568;28;98431;-79
2022/04/27 15:08:48;;;;;;;9.73;4.18;;;;;;;23.05;44.88;100516.34;20490296;28;97379;-79
2022/04/27 15:18:48;;;;;;;10.52;4.20;;;;;;;23.04;44.87;100523.41;20477381;28;97305;-80
2022/04/27 15:28:49;;;;;;;13.80;4.88;;;;;;;23.03;45.15;100525.25;20444770;28;97645;-77
2022/04/27 15:38:49;;;;;;;11.02;4.13;;;;;;;23.11;44.96;100534.31;20456181;28;97031;-77
2022/04/27 15:48:50;;;;;;;11.20;4.35;;;;;;;23.13;45.79;100532.38;20447912;28;97554;-78
2022/04/27 15:58:50;;;;;;;9.52;4.13;;;;;;;23.12;47.13;100501.63;20441412;28;97885;-79
2022/04/27 16:08:51;;;;;;;10.40;3.85;;;;;;;23.16;46.61;100485.44;20439858;28;100511;-79
2022/04/27 16:18:52;;;;;;;10.10;3.92;;;;;;;23.16;46.39;100481.94;20425608;28;98054;-78
2022/04/27 16:28:55;;;;;;;11.93;4.32;;;;;;;23.25;47.26;100507.59;20443968;28;97174;-80
2022/04/27 16:38:56;;;;;;;14.57;5.50;;;;;;;23.25;48.25;100514.69;20422832;28;99853;-81
2022/04/27 16:48:57;;;;;;;14.13;5.20;;;;;;;23.33;48.99;100514.88;20421011;28;97077;-78
2022/04/27 16:58:57;;;;;;;13.68;4.40;;;;;;;23.37;48.82;100534.78;20408803;28;97734;-76
2022/04/27 17:08:58;;;;;;;9.60;4.72;;;;;;;23.38;48.94;100533.00;20421019;28;97960;-77
2022/04/27 17:18:59;;;;;;;13.27;4.32;;;;;;;23.44;48.59;100545.69;20432128;28;97838;-78
2022/04/27 17:29:01;;;;;;;12.00;4.67;;;;;;;23.45;48.78;100548.19;20435436;28;99344;-79
2022/04/27 17:39:02;;;;;;;9.53;4.50;;;;;;;23.42;48.96;100563.47;20449955;28;101115;-78
2022/04/27 17:49:03;;;;;;;13.23;5.40;;;;;;;23.46;50.94;100570.16;20425958;28;97525;-77
2022/04/27 17:59:03;;;;;;;13.48;5.40;;;;;;;23.50;50.80;100572.44;20435626;28;98129;-77
2022/04/27 18:09:06;;;;;;;18.15;5.28;;;;;;;23.53;51.48;100589.00;20427018;28;99011;-79
2022/04/27 18:19:06;;;;;;;11.77;4.85;;;;;;;23.53;51.11;100599.56;20436088;28;97325;-79
2022/04/27 18:29:07;;;;;;;11.73;4.97;;;;;;;23.54;50.58;100595.97;20430695;28;105879;-79
2022/04/27 18:39:08;;;;;;;12.52;4.80;;;;;;;23.50;50.76;100590.94;20438875;28;100022;-78
2022/04/27 18:59:28;;;;;;;11.85;4.63;;;;;;;23.41;50.07;100604.06;20420657;28;98808;-78
2022/04/27 19:09:28;;;;;;;9.50;4.13;;;;;;;23.40;50.24;100612.97;20413741;28;97188;-77
2022/04/27 19:19:33;;;;;;;13.47;4.40;;;;;;;23.36;50.31;100612.38;20408107;28;98743;-78
2022/04/27 19:29:34;;;;;;;9.15;3.88;;;;;;;23.37;50.35;100619.34;20356043;28;98560;-77
2022/04/27 19:39:35;;;;;;;7.85;3.97;;;;;;;23.36;50.70;100637.97;20430615;28;100841;-78
2022/04/27 19:49:35;;;;;;;11.07;4.68;;;;;;;23.36;50.18;100632.69;20437434;28;96935;-77
2022/04/27 19:59:36;;;;;;;8.00;4.13;;;;;;;23.37;50.18;100637.03;20435550;28;98268;-77
2022/04/27 20:09:36;;;;;;;8.73;4.75;;;;;;;23.34;50.36;100636.31;20445633;28;100424;-77
2022/04/27 20:19:37;;;;;;;8.30;4.13;;;;;;;23.34;50.34;100635.47;20426358;28;98830;-78
2022/04/27 20:29:38;;;;;;;9.82;4.53;;;;;;;23.44;51.56;100649.59;20432206;28;98446;-79
2022/04/27 20:39:39;;;;;;;8.77;4.53;;;;;;;23.45;51.62;100648.63;20445973;28;99295;-79
2022/04/27 20:49:40;;;;;;;5.60;3.67;;;;;;;23.44;50.99;100652.22;20375752;28;97664;-78
2022/04/27 20:59:40;;;;;;;8.27;3.92;;;;;;;23.38;50.84;100654.56;20384025;28;98782;-77
2022/04/27 21:09:41;;;;;;;6.53;4.07;;;;;;;23.36;50.78;100664.41;20440696;28;98234;-76
2022/04/27 21:19:42;;;;;;;6.43;3.65;;;;;;;23.32;50.64;100675.22;20437093;28;97544;-76
2022/04/27 21:29:44;;;;;;;6.57;4.00;;;;;;;23.32;50.57;100677.84;20435786;28;97172;-76
2022/04/27 21:39:45;;;;;;;4.97;3.60;;;;;;;23.30;50.47;100678.94;20433831;28;102170;-76
2022/04/27 21:49:46;;;;;;;6.13;3.50;;;;;;;23.29;50.46;100693.13;20436458;28;100332;-78
2022/04/27 21:59:46;;;;;;;4.97;3.60;;;;;;;23.25;50.21;100695.16;20437436;28;100705;-78
2022/04/27 22:09:49;;;;;;;6.05;3.55;;;;;;;23.24;50.51;100708.50;20425521;28;98458;-77
2022/04/27 22:19:51;;;;;;;5.78;3.67;;;;;;;23.23;50.48;100718.25;20453007;28;98281;-77
2022/04/27 22:29:51;;;;;;;4.93;3.53;;;;;;;23.22;50.55;100724.50;20449348;28;97045;-76
2022/04/27 22:39:52;;;;;;;4.10;3.08;;;;;;;23.19;50.67;100724.72;20439998;28;97224;-77
2022/04/27 22:49:52;;;;;;;4.63;3.30;;;;;;;23.20;50.48;100725.59;20444755;28;97124;-76
2022/04/27 22:59:52;;;;;;;4.07;3.10;;;;;;;23.15;50.45;100725.91;20442094;28;97185;-76
2022/04/27 23:20:12;;;;;;;4.18;2.85;;;;;;;23.14;50.99;100717.16;20434746;28;97072;-76
2022/04/27 23:30:13;;;;;;;4.78;3.13;;;;;;;23.11;50.81;100717.41;20445280;28;97357;-76
2022/04/27 23:40:14;;;;;;;4.57;2.97;;;;;;;23.11;50.61;100717.41;20441671;28;97463;-77
2022/04/27 23:50:15;;;;;;;4.10;2.97;;;;;;;23.09;50.83;100716.69;20432486;28;98438;-78
